createdAt,value
2019-05-06T00:01:41.711Z,20.57
2019-05-06T00:04:14.027Z,17.80
2019-05-06T00:06:46.345Z,18.53
2019-05-06T00:09:17.745Z,13.30
2019-05-06T00:11:49.639Z,11.77
2019-05-06T00:14:23.445Z,12.43
2019-05-06T00:16:55.738Z,11.57
2019-05-06T00:19:27.226Z,12.93
2019-05-06T00:21:58.403Z,11.67
2019-05-06T00:24:31.378Z,12.57
2019-05-06T00:27:04.856Z,11.70
2019-05-06T00:29:36.422Z,10.93
2019-05-06T00:32:07.727Z,10.40
2019-05-06T00:34:38.930Z,11.63
2019-05-06T00:37:11.521Z,10.80
2019-05-06T00:39:44.389Z,11.63
2019-05-06T00:42:18.294Z,9.77
2019-05-06T00:44:50.170Z,10.07
2019-05-06T00:47:21.802Z,9.07
2019-05-06T00:49:54.707Z,7.47
2019-05-06T00:52:27.380Z,10.93
2019-05-06T00:54:59.648Z,8.33
2019-05-06T00:57:34.035Z,11.10
2019-05-06T01:00:06.936Z,7.50
2019-05-06T01:02:39.417Z,10.77
2019-05-06T01:05:10.994Z,10.53
2019-05-06T01:07:44.020Z,8.50
2019-05-06T01:10:17.261Z,10.90
2019-05-06T01:12:50.273Z,9.80
2019-05-06T01:15:25.849Z,11.97
2019-05-06T01:17:59.369Z,12.47
2019-05-06T01:20:33.790Z,14.70
2019-05-06T01:23:04.701Z,9.90
2019-05-06T01:25:35.939Z,8.37
2019-05-06T01:28:07.748Z,9.90
2019-05-06T01:30:39.666Z,7.73
2019-05-06T01:33:11.556Z,13.37
2019-05-06T01:35:44.358Z,12.40
2019-05-06T01:38:18.960Z,7.67
2019-05-06T01:40:54.554Z,11.10
2019-05-06T01:43:27.860Z,11.23
2019-05-06T01:45:59.461Z,9.60
2019-05-06T01:48:33.659Z,8.07
2019-05-06T01:51:05.982Z,9.13
2019-05-06T01:53:38.176Z,8.87
2019-05-06T01:56:09.515Z,11.23
2019-05-06T01:58:40.804Z,11.30
2019-05-06T02:01:12.129Z,11.60
2019-05-06T02:03:44.156Z,8.67
2019-05-06T02:06:16.451Z,8.70
2019-05-06T02:08:48.439Z,10.43
2019-05-06T02:11:20.513Z,8.90
2019-05-06T02:13:53.815Z,7.10
2019-05-06T02:16:26.420Z,8.93
2019-05-06T02:18:59.470Z,10.70
2019-05-06T02:21:30.548Z,11.13
2019-05-06T02:24:04.267Z,10.73
2019-05-06T02:26:36.274Z,9.90
2019-05-06T02:29:09.459Z,13.67
2019-05-06T02:31:42.096Z,11.97
2019-05-06T02:34:15.414Z,11.03
2019-05-06T02:36:47.454Z,8.13
2019-05-06T02:39:18.749Z,8.10
2019-05-06T02:41:49.814Z,7.73
2019-05-06T02:44:23.792Z,7.50
2019-05-06T02:46:56.454Z,9.50
2019-05-06T02:49:29.410Z,8.17
2019-05-06T02:52:03.093Z,7.90
2019-05-06T02:54:34.662Z,7.23
2019-05-06T02:57:07.512Z,10.83
2019-05-06T02:59:39.882Z,9.20
2019-05-06T03:02:13.954Z,6.57
2019-05-06T03:04:45.717Z,9.00
2019-05-06T03:07:16.880Z,9.50
2019-05-06T03:09:48.490Z,10.87
2019-05-06T03:12:22.870Z,14.27
2019-05-06T03:14:53.648Z,10.83
2019-05-06T03:17:28.809Z,11.27
2019-05-06T03:20:04.326Z,9.20
2019-05-06T03:22:37.494Z,13.70
2019-05-06T03:25:13.314Z,12.30
2019-05-06T03:27:46.992Z,10.23
2019-05-06T03:30:19.041Z,11.37
2019-05-06T03:33:23.435Z,11.33
2019-05-06T03:35:36.304Z,10.33
2019-05-06T03:37:59.293Z,10.43
2019-05-06T03:40:36.176Z,12.47
2019-05-06T03:43:05.495Z,10.60
2019-05-06T03:45:38.443Z,9.13
2019-05-06T03:48:12.980Z,9.20
2019-05-06T03:50:44.738Z,11.07
2019-05-06T03:53:16.909Z,8.27
2019-05-06T03:55:53.747Z,8.93
2019-05-06T03:58:26.849Z,7.80
2019-05-06T04:00:59.841Z,8.87
2019-05-06T04:03:44.058Z,8.70
2019-05-06T04:06:05.837Z,7.73
2019-05-06T04:08:37.497Z,9.30
2019-05-06T04:11:13.423Z,9.70
2019-05-06T04:13:49.515Z,9.00
2019-05-06T04:16:23.247Z,10.57
2019-05-06T04:18:57.691Z,8.47
2019-05-06T04:21:32.977Z,10.20
2019-05-06T04:24:04.660Z,9.40
2019-05-06T04:26:38.031Z,11.87
2019-05-06T04:29:12.916Z,11.90
2019-05-06T04:31:43.969Z,14.90
2019-05-06T04:34:19.474Z,20.53
2019-05-06T04:36:48.599Z,22.77
2019-05-06T04:39:23.322Z,28.17
2019-05-06T04:41:54.680Z,38.17
2019-05-06T04:44:26.780Z,32.47
2019-05-06T04:46:59.078Z,30.80
2019-05-06T04:49:33.109Z,28.17
2019-05-06T04:52:06.453Z,26.33
2019-05-06T04:54:38.547Z,26.67
2019-05-06T04:57:12.887Z,24.50
2019-05-06T04:59:46.077Z,23.47
2019-05-06T05:02:18.819Z,21.77
2019-05-06T05:04:52.869Z,20.70
2019-05-06T05:07:24.737Z,18.50
2019-05-06T05:09:58.354Z,21.70
2019-05-06T05:12:33.551Z,23.65
2019-05-06T05:15:06.574Z,24.60
2019-05-06T05:17:42.001Z,24.10
2019-05-06T05:20:13.106Z,25.97
2019-05-06T05:22:48.106Z,24.63
2019-05-06T05:25:19.198Z,28.13
2019-05-06T05:27:52.732Z,79.60
2019-05-06T05:30:25.978Z,82.20
2019-05-06T05:32:58.209Z,147.83
2019-05-06T05:35:32.121Z,181.43
2019-05-06T05:38:03.871Z,78.97
2019-05-06T05:40:36.586Z,71.87
2019-05-06T05:43:11.742Z,105.23
2019-05-06T05:45:44.561Z,80.20
2019-05-06T05:48:19.303Z,228.87
2019-05-06T05:50:52.511Z,97.37
2019-05-06T05:53:26.087Z,23.90
2019-05-06T05:55:58.787Z,11.47
2019-05-06T05:58:33.127Z,11.57
2019-05-06T06:01:04.925Z,14.17
2019-05-06T06:03:37.538Z,6.77
2019-05-06T06:06:12.466Z,7.13
2019-05-06T06:08:44.040Z,5.30
2019-05-06T06:11:18.523Z,4.30
2019-05-06T06:13:52.173Z,4.87
2019-05-06T06:16:23.822Z,4.67
2019-05-06T06:19:03.228Z,4.47
2019-05-06T06:21:32.376Z,6.37
2019-05-06T06:24:05.040Z,7.77
2019-05-06T06:26:37.566Z,7.50
2019-05-06T06:29:09.295Z,5.70
2019-05-06T06:31:42.846Z,7.83
2019-05-06T06:34:16.264Z,18.50
2019-05-06T06:36:49.517Z,13.70
2019-05-06T06:39:24.439Z,16.50
2019-05-06T06:41:56.318Z,11.65
2019-05-06T06:44:29.263Z,10.27
2019-05-06T06:47:02.189Z,16.17
2019-05-06T06:49:35.114Z,13.72
2019-05-06T06:52:11.296Z,10.20
2019-05-06T06:54:44.540Z,9.75
2019-05-06T06:57:19.362Z,6.28
2019-05-06T06:59:53.205Z,9.25
2019-05-06T07:02:26.661Z,6.75
2019-05-06T07:05:02.348Z,10.43
2019-05-06T07:07:43.411Z,6.15
2019-05-06T07:10:12.119Z,7.00
2019-05-06T07:12:43.723Z,6.50
2019-05-06T07:15:15.221Z,5.95
2019-05-06T07:17:46.446Z,7.35
2019-05-06T07:20:22.856Z,5.55
2019-05-06T07:22:54.901Z,5.67
2019-05-06T07:25:26.655Z,5.67
2019-05-06T07:27:59.314Z,8.20
2019-05-06T07:30:32.325Z,6.10
2019-05-06T07:33:06.467Z,8.73
2019-05-06T07:35:41.103Z,6.28
2019-05-06T07:38:12.316Z,4.87
2019-05-06T07:40:47.150Z,6.90
2019-05-06T07:43:22.040Z,7.08
2019-05-06T07:45:55.504Z,6.72
2019-05-06T07:48:28.271Z,6.72
2019-05-06T07:51:03.032Z,11.85
2019-05-06T07:53:34.883Z,8.18
2019-05-06T07:56:07.887Z,8.05
2019-05-06T07:58:43.095Z,7.47
2019-05-06T08:01:16.067Z,10.98
2019-05-06T08:03:49.231Z,9.88
2019-05-06T08:06:22.734Z,9.70
2019-05-06T08:08:56.061Z,7.95
2019-05-06T08:11:27.988Z,10.60
2019-05-06T08:13:59.533Z,6.72
2019-05-06T08:16:32.377Z,7.70
2019-05-06T08:19:05.236Z,5.65
2019-05-06T08:21:38.661Z,5.45
2019-05-06T08:24:11.955Z,6.12
2019-05-06T08:26:43.368Z,6.50
2019-05-06T08:29:16.030Z,4.40
2019-05-06T08:31:49.189Z,5.45
2019-05-06T08:34:22.605Z,3.42
2019-05-06T08:36:56.725Z,4.28
2019-05-06T08:39:29.639Z,4.60
2019-05-06T08:42:02.857Z,4.55
2019-05-06T08:44:35.796Z,4.28
2019-05-06T08:47:08.060Z,4.87
2019-05-06T08:49:42.274Z,4.70
2019-05-06T08:52:15.708Z,6.42
2019-05-06T08:54:48.481Z,6.17
2019-05-06T08:57:19.894Z,4.90
2019-05-06T08:59:51.034Z,5.03
2019-05-06T09:02:24.743Z,5.60
2019-05-06T09:04:55.759Z,5.05
2019-05-06T09:07:27.147Z,4.28
2019-05-06T09:09:59.548Z,7.47
2019-05-06T09:12:32.939Z,5.90
2019-05-06T09:15:06.265Z,6.22
2019-05-06T09:17:37.911Z,7.65
2019-05-06T09:20:09.948Z,4.08
2019-05-06T09:22:43.110Z,4.00
2019-05-06T09:25:16.045Z,10.85
2019-05-06T09:27:47.268Z,2.98
2019-05-06T09:30:23.058Z,9.43
2019-05-06T09:32:55.033Z,4.00
2019-05-06T09:35:27.559Z,3.12
2019-05-06T09:38:02.186Z,3.70
2019-05-06T09:40:34.715Z,7.25
2019-05-06T09:43:07.566Z,4.00
2019-05-06T09:45:38.909Z,4.70
2019-05-06T09:48:12.853Z,7.17
2019-05-06T09:50:46.792Z,3.75
2019-05-06T09:53:23.094Z,3.20
2019-05-06T09:56:03.136Z,5.78
2019-05-06T09:58:36.132Z,4.85
2019-05-06T10:01:09.370Z,8.90
2019-05-06T10:03:42.599Z,3.50
2019-05-06T10:06:14.701Z,7.85
2019-05-06T10:08:46.627Z,4.85
2019-05-06T10:11:18.836Z,6.47
2019-05-06T10:13:52.419Z,5.47
2019-05-06T10:16:24.725Z,4.67
2019-05-06T10:18:56.912Z,6.90
2019-05-06T10:21:32.197Z,5.87
2019-05-06T10:24:03.940Z,9.90
2019-05-06T10:26:37.123Z,7.58
2019-05-06T10:29:08.754Z,7.15
2019-05-06T10:31:43.181Z,11.83
2019-05-06T10:34:14.902Z,5.70
2019-05-06T10:36:50.119Z,8.65
2019-05-06T10:39:26.010Z,6.28
2019-05-06T10:42:03.281Z,5.50
2019-05-06T10:44:38.273Z,7.15
2019-05-06T10:47:12.153Z,11.70
2019-05-06T10:49:43.818Z,6.03
2019-05-06T10:52:16.940Z,7.33
2019-05-06T10:54:48.107Z,7.12
2019-05-06T10:57:22.206Z,6.55
2019-05-06T10:59:54.040Z,12.13
2019-05-06T11:02:28.778Z,5.22
2019-05-06T11:05:02.783Z,6.20
2019-05-06T11:07:35.593Z,6.95
2019-05-06T11:10:20.564Z,6.92
2019-05-06T11:12:43.104Z,8.38
2019-05-06T11:15:16.518Z,10.50
2019-05-06T11:17:49.167Z,7.67
2019-05-06T11:20:24.178Z,10.70
2019-05-06T11:22:55.708Z,9.78
2019-05-06T11:25:28.569Z,11.12
2019-05-06T11:28:02.928Z,7.45
2019-05-06T11:30:37.017Z,9.15
2019-05-06T11:33:13.132Z,7.37
2019-05-06T11:35:46.346Z,10.18
2019-05-06T11:38:19.239Z,8.03
2019-05-06T11:40:52.920Z,14.28
2019-05-06T11:43:25.022Z,7.95
2019-05-06T11:45:57.799Z,11.22
2019-05-06T11:48:32.620Z,8.63
2019-05-06T11:51:05.591Z,6.47
2019-05-06T11:53:39.872Z,11.80
2019-05-06T11:56:12.726Z,6.92
2019-05-06T11:58:46.643Z,6.40
2019-05-06T12:01:21.320Z,9.05
2019-05-06T12:03:53.012Z,8.78
2019-05-06T12:06:26.000Z,5.80
2019-05-06T12:08:58.725Z,6.95
2019-05-06T12:11:31.542Z,4.83
2019-05-06T12:14:04.992Z,5.00
2019-05-06T12:16:38.027Z,7.55
2019-05-06T12:19:09.595Z,8.58
2019-05-06T12:21:43.144Z,9.35
2019-05-06T12:24:15.198Z,11.25
2019-05-06T12:26:46.861Z,5.90
2019-05-06T12:29:20.005Z,6.33
2019-05-06T12:31:53.369Z,9.33
2019-05-06T12:34:26.227Z,8.40
2019-05-06T12:36:59.145Z,11.75
2019-05-06T12:39:33.016Z,5.90
2019-05-06T12:42:06.339Z,18.52
2019-05-06T12:44:39.510Z,10.78
2019-05-06T12:47:13.988Z,5.92
2019-05-06T12:49:45.301Z,6.72
2019-05-06T12:52:17.208Z,375.05
2019-05-06T12:54:48.736Z,378.42
2019-05-06T12:57:23.374Z,265.18
2019-05-06T12:59:54.922Z,258.20
2019-05-06T13:02:32.801Z,73.30
2019-05-06T13:05:04.909Z,17.90
2019-05-06T13:07:37.779Z,8.85
2019-05-06T13:10:09.076Z,6.72
2019-05-06T13:12:42.365Z,7.37
2019-05-06T13:15:13.889Z,7.03
2019-05-06T13:17:45.343Z,10.15
2019-05-06T13:20:17.166Z,6.37
2019-05-06T13:22:53.131Z,7.78
2019-05-06T13:25:23.526Z,4.85
2019-05-06T13:27:55.315Z,3.45
2019-05-06T13:30:28.405Z,4.28
2019-05-06T13:33:04.078Z,5.92
2019-05-06T13:35:36.210Z,8.60
2019-05-06T13:38:08.745Z,6.37
2019-05-06T13:40:53.854Z,5.78
2019-05-06T13:43:16.436Z,16.30
2019-05-06T13:45:52.578Z,6.33
2019-05-06T13:48:25.757Z,4.10
2019-05-06T13:50:58.969Z,8.70
2019-05-06T13:53:39.276Z,2.50
2019-05-06T13:56:05.226Z,5.47
2019-05-06T13:58:38.268Z,2.40
2019-05-06T14:01:11.084Z,7.12
2019-05-06T14:03:45.608Z,2.60
2019-05-06T14:06:18.274Z,2.98
2019-05-06T14:08:49.767Z,4.12
2019-05-06T14:11:23.100Z,5.47
2019-05-06T14:13:54.934Z,1.85
2019-05-06T14:16:26.788Z,3.98
2019-05-06T14:18:58.228Z,3.62
2019-05-06T14:21:32.405Z,4.42
2019-05-06T14:24:05.312Z,3.37
2019-05-06T14:26:44.467Z,7.40
2019-05-06T14:29:15.789Z,11.60
2019-05-06T14:31:48.639Z,4.28
2019-05-06T14:34:23.119Z,6.58
2019-05-06T14:36:54.583Z,2.45
2019-05-06T14:39:47.439Z,4.12
2019-05-06T14:42:03.903Z,2.67
2019-05-06T14:44:33.761Z,5.60
2019-05-06T14:47:08.320Z,2.87
2019-05-06T14:49:39.785Z,7.62
2019-05-06T14:52:13.172Z,4.25
2019-05-06T14:54:47.936Z,4.97
2019-05-06T14:57:22.777Z,3.67
2019-05-06T14:59:55.902Z,8.23
2019-05-06T15:02:28.350Z,7.65
2019-05-06T15:05:02.747Z,9.53
2019-05-06T15:07:35.031Z,5.05
2019-05-06T15:10:19.198Z,5.33
2019-05-06T15:12:42.454Z,2.75
2019-05-06T15:15:15.044Z,6.65
2019-05-06T15:17:47.840Z,5.47
2019-05-06T15:20:19.463Z,5.83
2019-05-06T15:22:53.038Z,7.80
2019-05-06T15:25:26.334Z,5.22
2019-05-06T15:27:59.344Z,4.20
2019-05-06T15:30:34.176Z,3.12
2019-05-06T15:33:08.269Z,5.25
2019-05-06T15:35:42.720Z,5.65
2019-05-06T15:38:16.496Z,3.42
2019-05-06T15:40:48.302Z,3.87
2019-05-06T15:43:19.408Z,6.37
2019-05-06T15:45:52.651Z,4.10
2019-05-06T15:48:24.180Z,4.92
2019-05-06T15:50:57.113Z,3.72
2019-05-06T15:53:33.328Z,6.65
2019-05-06T15:56:04.834Z,4.58
2019-05-06T15:58:38.037Z,7.95
2019-05-06T16:01:09.723Z,6.37
2019-05-06T16:03:43.223Z,7.20
2019-05-06T16:06:16.063Z,7.08
2019-05-06T16:08:47.091Z,5.53
2019-05-06T16:11:19.628Z,2.50
2019-05-06T16:13:53.419Z,5.97
2019-05-06T16:16:25.357Z,6.72
2019-05-06T16:18:58.120Z,5.78
2019-05-06T16:21:29.889Z,13.93
2019-05-06T16:24:04.528Z,8.55
2019-05-06T16:26:36.753Z,9.10
2019-05-06T16:29:08.166Z,14.70
2019-05-06T16:31:42.265Z,26.05
2019-05-06T16:34:14.780Z,7.67
2019-05-06T16:36:47.780Z,5.95
2019-05-06T16:39:19.594Z,3.50
2019-05-06T16:41:52.537Z,7.97
2019-05-06T16:44:25.521Z,4.30
2019-05-06T16:46:57.508Z,4.25
2019-05-06T16:49:29.559Z,3.70
2019-05-06T16:52:02.519Z,3.65
2019-05-06T16:54:35.115Z,4.85
2019-05-06T16:57:08.482Z,3.75
2019-05-06T16:59:42.316Z,2.50
2019-05-06T17:02:14.627Z,7.58
2019-05-06T17:04:47.648Z,6.60
2019-05-06T17:07:22.205Z,3.80
2019-05-06T17:09:54.359Z,2.35
2019-05-06T17:12:27.903Z,4.75
2019-05-06T17:15:01.018Z,6.33
2019-05-06T17:17:43.179Z,47.20
2019-05-06T17:20:07.693Z,3.50
2019-05-06T17:22:39.675Z,5.65
2019-05-06T17:25:11.726Z,5.85
2019-05-06T17:27:57.410Z,7.03
2019-05-06T17:30:35.811Z,5.65
2019-05-06T17:33:09.737Z,6.78
2019-05-06T17:35:42.858Z,2.77
2019-05-06T17:38:16.311Z,4.15
2019-05-06T17:40:48.135Z,3.92
2019-05-06T17:43:19.847Z,9.10
2019-05-06T17:46:03.748Z,11.73
2019-05-06T17:48:35.433Z,7.17
2019-05-06T17:51:08.808Z,5.28
2019-05-06T17:53:43.473Z,13.43
2019-05-06T17:56:15.966Z,13.43
2019-05-06T17:58:53.144Z,15.10
2019-05-06T18:01:26.374Z,7.80
2019-05-06T18:03:58.167Z,5.42
2019-05-06T18:06:32.442Z,14.20
2019-05-06T18:09:04.391Z,11.30
2019-05-06T18:11:38.489Z,15.30
2019-05-06T18:14:13.227Z,28.75
2019-05-06T18:16:44.873Z,70.75
2019-05-06T18:19:16.236Z,31.90
2019-05-06T18:21:48.405Z,32.20
2019-05-06T18:26:52.877Z,21.85
2019-05-06T18:29:25.347Z,20.35
2019-05-06T18:31:57.148Z,22.98
2019-05-06T18:34:28.507Z,24.92
2019-05-06T18:42:13.407Z,27.22
2019-05-06T18:44:35.444Z,17.80
2019-05-06T18:47:06.610Z,23.12
2019-05-06T18:49:38.532Z,20.52
2019-05-06T18:52:13.568Z,6.75
2019-05-06T18:54:45.612Z,6.40
2019-05-06T18:57:17.488Z,6.05
2019-05-06T18:59:50.505Z,4.70
2019-05-06T19:02:22.906Z,6.92
2019-05-06T19:04:56.530Z,8.30
2019-05-06T19:10:03.188Z,5.58
2019-05-06T19:12:41.344Z,7.35
2019-05-06T19:15:12.711Z,6.50
2019-05-06T19:17:44.514Z,4.87
2019-05-06T19:20:16.688Z,5.80
2019-05-06T19:22:48.171Z,4.65
2019-05-06T19:25:26.570Z,5.62
2019-05-06T19:28:04.176Z,13.65
2019-05-06T19:30:35.470Z,12.55
2019-05-06T19:33:07.324Z,25.08
2019-05-06T19:35:40.080Z,30.60
2019-05-06T19:38:12.567Z,31.87
2019-05-06T19:40:44.326Z,35.00
2019-05-06T19:43:18.177Z,33.73
2019-05-06T19:45:50.143Z,28.90
2019-05-06T19:48:24.698Z,25.25
2019-05-06T19:50:55.171Z,23.23
2019-05-06T19:53:38.023Z,16.87
2019-05-06T19:56:16.181Z,14.28
2019-05-06T19:58:48.925Z,11.93
2019-05-06T20:01:22.738Z,9.58
2019-05-06T20:03:54.662Z,8.48
2019-05-06T20:06:28.585Z,7.17
2019-05-06T20:09:03.315Z,7.70
2019-05-06T20:11:36.592Z,6.85
2019-05-06T20:14:08.381Z,15.43
2019-05-06T20:16:41.955Z,8.90
2019-05-06T20:19:27.122Z,9.40
2019-05-06T20:21:46.958Z,12.03
2019-05-06T20:24:18.502Z,9.63
2019-05-06T20:26:52.702Z,9.40
2019-05-06T20:29:24.549Z,7.65
2019-05-06T20:31:56.149Z,11.88
2019-05-06T20:34:38.148Z,14.98
2019-05-06T20:37:17.795Z,9.08
2019-05-06T20:39:49.839Z,11.45
2019-05-06T20:42:23.510Z,11.22
2019-05-06T20:44:57.105Z,9.45
2019-05-06T20:47:28.993Z,11.43
2019-05-06T20:50:08.064Z,9.23
2019-05-06T20:52:39.705Z,17.30
2019-05-06T20:55:15.191Z,12.25
2019-05-06T20:57:45.081Z,11.80
2019-05-06T21:00:17.121Z,8.23
2019-05-06T21:02:49.202Z,13.30
2019-05-06T21:05:22.781Z,10.70
2019-05-06T21:07:54.158Z,10.63
2019-05-06T21:10:28.115Z,13.35
2019-05-06T21:12:59.477Z,11.30
2019-05-06T21:15:32.359Z,13.98
2019-05-06T21:18:04.517Z,15.47
2019-05-06T21:20:37.937Z,23.45
2019-05-06T21:23:11.088Z,13.93
2019-05-06T21:25:43.169Z,18.20
2019-05-06T21:28:15.489Z,13.70
2019-05-06T21:30:47.618Z,17.00
2019-05-06T21:33:22.126Z,20.80
2019-05-06T21:35:54.690Z,19.70
2019-05-06T21:38:26.421Z,19.42
2019-05-06T21:40:57.552Z,14.23
2019-05-06T21:43:42.237Z,17.73
2019-05-06T21:46:02.506Z,16.70
2019-05-06T21:48:35.616Z,15.90
2019-05-06T21:51:07.342Z,19.43
2019-05-06T21:53:40.596Z,22.50
2019-05-06T21:56:13.086Z,26.40
2019-05-06T21:58:45.895Z,47.25
2019-05-06T22:01:19.668Z,50.73
2019-05-06T22:03:52.355Z,85.17
2019-05-06T22:06:24.581Z,70.93
2019-05-06T22:08:58.066Z,46.00
2019-05-06T22:11:29.604Z,23.00
2019-05-06T22:14:01.836Z,32.65
2019-05-06T22:16:33.808Z,23.30
2019-05-06T22:19:05.886Z,15.00
2019-05-06T22:21:38.608Z,16.80
2019-05-06T22:24:12.104Z,51.53
2019-05-06T22:26:43.946Z,29.55
2019-05-06T22:29:16.405Z,20.43
2019-05-06T22:31:48.179Z,14.93
2019-05-06T22:34:22.103Z,14.25
2019-05-06T22:36:54.303Z,11.20
2019-05-06T22:39:27.170Z,14.20
2019-05-06T22:41:58.455Z,15.25
2019-05-06T22:44:32.336Z,16.60
2019-05-06T22:47:04.081Z,17.70
2019-05-06T22:49:35.247Z,14.75
2019-05-06T22:52:07.714Z,16.85
2019-05-06T22:54:39.922Z,20.17
2019-05-06T22:57:13.159Z,17.40
2019-05-06T22:59:45.060Z,19.50
2019-05-06T23:02:17.975Z,18.13
2019-05-06T23:04:52.989Z,12.95
2019-05-06T23:07:24.439Z,15.93
2019-05-06T23:09:56.359Z,21.67
2019-05-06T23:12:27.821Z,17.40
2019-05-06T23:14:59.240Z,21.03
2019-05-06T23:17:34.267Z,24.20
2019-05-06T23:20:07.401Z,23.73
2019-05-06T23:22:40.207Z,23.07
2019-05-06T23:25:13.577Z,23.23
2019-05-06T23:27:46.303Z,27.25
2019-05-06T23:30:19.241Z,33.57
2019-05-06T23:32:52.928Z,24.20
2019-05-06T23:35:24.917Z,22.00
2019-05-06T23:37:59.333Z,31.87
2019-05-06T23:40:35.859Z,32.43
2019-05-06T23:43:12.644Z,25.20
2019-05-06T23:45:47.506Z,26.80
2019-05-06T23:48:22.856Z,26.80
2019-05-06T23:50:57.719Z,30.30
2019-05-06T23:53:33.121Z,24.17
2019-05-06T23:56:08.568Z,20.17
2019-05-06T23:58:40.329Z,15.47
